Plentywood (PWD)
Plentywood, MT
Field Elevation: 2251
Lat: 48°47.32N  Long: 104°31.39W
CTAF/Unicom Freq: 122.8000
   
     For Weather-by-Phone, call 406-765-2149
Weather Advisories
2018-04-24   22:42 Z
Altimeter 30.31" Hg
Wind 240° @ 5 KT
Gusts 14 KT
Visibility 10 SM
Temperature 16° C (61° F)
Dewpoint -6° C (21° F)
Relative Humidity 22%
Density Altitude --
Condensation Altitude 13,100 feet
Wind and Runways
Indicated Runway = 26
Headwind = 5 kt
Crosswind = 2 kt
History
 
 
 
More Info
NOAA Forecast
 
Airport IQ 5010
(S59) Libby
(6S5) Ravalli County
 
about DigiWx
 
FAA Disclaimer: The data displayed is for advisory purposes only and is not to be used for flight planning or operations. For official data, please call 406-765-2149 to hear the current automated AWOS voice message.
  METAR PWD 242242Z AUTO 24005G14KT VIS 10 SM 16/M06 A3031